createdAt,value
2022-10-14T00:01:31.593Z,8.73
2022-10-14T00:03:58.366Z,8.76
2022-10-14T00:06:27.737Z,8.72
2022-10-14T00:08:54.545Z,8.76
2022-10-14T00:11:22.969Z,8.76
2022-10-14T00:13:49.903Z,8.71
2022-10-14T00:16:31.336Z,8.72
2022-10-14T00:18:58.305Z,8.68
2022-10-14T00:21:25.041Z,8.67
2022-10-14T00:23:51.691Z,8.68
2022-10-14T00:26:22.899Z,8.66
2022-10-14T00:28:49.711Z,8.66
2022-10-14T00:31:16.523Z,8.69
2022-10-14T00:33:43.411Z,8.69
2022-10-14T00:36:11.647Z,8.74
2022-10-14T00:38:38.256Z,8.75
2022-10-14T00:41:05.282Z,8.73
2022-10-14T00:43:56.102Z,8.69
2022-10-14T00:46:23.692Z,8.73
2022-10-14T00:48:50.347Z,8.74
2022-10-14T00:51:17.280Z,8.79
2022-10-14T00:53:43.946Z,8.75
2022-10-14T00:56:11.192Z,8.74
2022-10-14T00:58:38.313Z,8.73
2022-10-14T01:01:04.992Z,8.77
2022-10-14T01:03:32.847Z,8.75
2022-10-14T01:05:59.358Z,8.78
2022-10-14T01:08:37.402Z,8.71
2022-10-14T01:11:07.899Z,8.74
2022-10-14T01:13:35.753Z,8.63
2022-10-14T01:16:05.191Z,8.63
2022-10-14T01:18:53.539Z,8.65
2022-10-14T01:21:37.837Z,8.61
2022-10-14T01:24:28.001Z,8.66
2022-10-14T01:27:09.685Z,8.76
2022-10-14T01:29:54.283Z,8.68
2022-10-14T01:32:33.529Z,8.67
2022-10-14T01:35:09.169Z,8.63
2022-10-14T01:37:37.353Z,8.67
2022-10-14T01:40:07.909Z,8.68
2022-10-14T01:42:35.977Z,8.70
2022-10-14T01:45:17.195Z,8.69
2022-10-14T01:47:43.800Z,8.74
2022-10-14T01:50:13.636Z,8.67
2022-10-14T01:52:43.053Z,8.73
2022-10-14T01:55:11.691Z,8.69
2022-10-14T01:57:38.953Z,8.69
2022-10-14T02:00:06.397Z,8.66
2022-10-14T02:02:36.953Z,8.70
2022-10-14T02:05:08.736Z,8.73
2022-10-14T02:07:45.677Z,8.73
2022-10-14T02:10:30.937Z,8.74
2022-10-14T02:13:08.652Z,8.71
2022-10-14T02:15:57.075Z,8.71
2022-10-14T02:18:30.766Z,8.74
2022-10-14T02:21:18.416Z,8.68
2022-10-14T02:23:47.154Z,8.67
2022-10-14T02:26:13.754Z,8.65
2022-10-14T02:28:40.379Z,8.66
2022-10-14T02:31:12.357Z,8.60
2022-10-14T02:33:41.449Z,8.60
2022-10-14T02:36:09.088Z,8.57
2022-10-14T02:38:35.790Z,8.67
2022-10-14T02:41:04.551Z,8.71
2022-10-14T02:43:31.085Z,8.68
2022-10-14T02:45:58.608Z,8.67
2022-10-14T02:48:25.193Z,8.74
2022-10-14T02:50:51.908Z,8.69
2022-10-14T02:53:18.449Z,8.62
2022-10-14T02:55:44.975Z,8.68
2022-10-14T02:58:11.521Z,8.62
2022-10-14T03:00:38.128Z,8.64
2022-10-14T03:03:04.795Z,8.64
2022-10-14T03:05:31.425Z,8.66
2022-10-14T03:07:58.031Z,8.71
2022-10-14T03:10:24.600Z,8.71
2022-10-14T03:12:51.242Z,8.68
2022-10-14T03:15:17.818Z,8.67
2022-10-14T03:17:44.429Z,8.65
2022-10-14T03:20:11.436Z,8.61
2022-10-14T03:22:37.949Z,8.57
2022-10-14T03:25:04.719Z,8.57
2022-10-14T03:27:31.277Z,8.67
2022-10-14T03:29:57.896Z,8.69
2022-10-14T03:32:24.608Z,8.61
2022-10-14T03:34:51.276Z,8.69
2022-10-14T03:37:17.919Z,8.68
2022-10-14T03:39:44.509Z,8.66
2022-10-14T03:42:11.091Z,8.72
2022-10-14T03:44:37.695Z,8.68
2022-10-14T03:47:04.492Z,8.78
2022-10-14T03:49:31.021Z,8.88
2022-10-14T03:51:57.649Z,9.02
2022-10-14T03:54:24.387Z,9.04
2022-10-14T03:56:51.023Z,9.14
2022-10-14T03:59:17.743Z,9.13
2022-10-14T04:01:44.431Z,9.14
2022-10-14T04:04:11.124Z,9.11
2022-10-14T04:06:37.818Z,9.08
2022-10-14T04:09:04.836Z,9.07
2022-10-14T04:11:31.348Z,9.03
2022-10-14T04:13:58.759Z,9.00
2022-10-14T04:16:25.742Z,8.99
2022-10-14T04:18:52.461Z,9.02
2022-10-14T04:21:19.055Z,8.95
2022-10-14T04:23:45.709Z,8.93
2022-10-14T04:26:12.309Z,8.86
2022-10-14T04:28:38.967Z,8.91
2022-10-14T04:31:05.784Z,8.96
2022-10-14T04:33:32.431Z,8.90
2022-10-14T04:35:59.759Z,8.87
2022-10-14T04:38:27.124Z,8.93
2022-10-14T04:40:53.815Z,8.90
2022-10-14T04:43:20.516Z,8.87
2022-10-14T04:45:47.299Z,8.80
2022-10-14T04:48:14.229Z,8.78
2022-10-14T04:50:40.886Z,8.77
2022-10-14T04:53:11.877Z,8.74
2022-10-14T04:55:39.998Z,8.70
2022-10-14T04:58:06.619Z,8.61
2022-10-14T05:00:33.206Z,8.66
2022-10-14T05:02:59.801Z,8.60
2022-10-14T05:05:28.056Z,8.62
2022-10-14T05:07:54.742Z,8.66
2022-10-14T05:10:21.475Z,8.69
2022-10-14T05:12:48.245Z,8.67
2022-10-14T05:15:15.042Z,8.68
2022-10-14T05:17:41.708Z,8.69
2022-10-14T05:20:08.654Z,8.69
2022-10-14T05:22:35.250Z,8.71
2022-10-14T05:25:01.928Z,8.73
2022-10-14T05:27:28.528Z,8.74
2022-10-14T05:29:55.103Z,8.84
2022-10-14T05:32:21.890Z,8.77
2022-10-14T05:34:58.527Z,8.91
2022-10-14T05:37:25.329Z,8.92
2022-10-14T05:39:51.952Z,8.94
2022-10-14T05:42:18.772Z,8.91
2022-10-14T05:44:45.571Z,8.94
2022-10-14T05:47:12.295Z,8.98
2022-10-14T05:49:38.982Z,8.99
2022-10-14T05:52:05.594Z,8.95
2022-10-14T05:54:32.221Z,8.90
2022-10-14T05:56:58.918Z,8.94
2022-10-14T05:59:25.582Z,8.98
2022-10-14T06:01:52.255Z,8.95
2022-10-14T06:04:19.955Z,8.98
2022-10-14T06:06:46.628Z,8.95
2022-10-14T06:09:13.209Z,8.98
2022-10-14T06:11:39.811Z,9.05
2022-10-14T06:14:06.608Z,9.09
2022-10-14T06:16:33.158Z,9.21
2022-10-14T06:18:59.838Z,9.17
2022-10-14T06:21:26.452Z,9.15
2022-10-14T06:23:53.356Z,9.19
2022-10-14T06:26:19.929Z,9.30
2022-10-14T06:28:46.649Z,9.24
2022-10-14T06:31:13.317Z,9.41
2022-10-14T06:33:40.026Z,9.35
2022-10-14T06:36:06.993Z,9.35
2022-10-14T06:38:33.654Z,9.37
2022-10-14T06:41:00.325Z,9.42
2022-10-14T06:43:26.919Z,9.44
2022-10-14T06:45:53.914Z,9.52
2022-10-14T06:48:20.478Z,9.49
2022-10-14T06:50:47.099Z,9.58
2022-10-14T06:53:13.749Z,9.65
2022-10-14T06:55:40.333Z,9.70
2022-10-14T06:58:06.984Z,9.73
2022-10-14T07:00:33.573Z,9.78
2022-10-14T07:03:00.275Z,9.89
2022-10-14T07:05:27.009Z,9.86
2022-10-14T07:07:53.983Z,9.96
2022-10-14T07:10:20.600Z,10.04
2022-10-14T07:12:47.195Z,10.25
2022-10-14T07:15:14.133Z,10.28
2022-10-14T07:17:40.758Z,10.38
2022-10-14T07:20:07.727Z,10.40
2022-10-14T07:22:38.396Z,10.53
2022-10-14T07:25:07.844Z,10.64
2022-10-14T07:27:34.610Z,10.78
2022-10-14T07:30:01.291Z,11.03
2022-10-14T07:32:28.824Z,11.26
2022-10-14T07:34:55.464Z,11.45
2022-10-14T07:37:23.498Z,11.50
2022-10-14T07:39:50.512Z,11.64
2022-10-14T07:42:17.173Z,11.92
2022-10-14T07:44:43.826Z,12.14
2022-10-14T07:47:10.444Z,12.20
2022-10-14T07:49:37.137Z,12.33
2022-10-14T07:52:03.881Z,12.08
2022-10-14T07:54:31.768Z,12.07
2022-10-14T07:56:58.846Z,12.26
2022-10-14T07:59:25.764Z,12.42
2022-10-14T08:01:52.606Z,12.62
2022-10-14T08:04:19.786Z,12.69
2022-10-14T08:06:50.096Z,12.89
2022-10-14T08:09:17.066Z,13.07
2022-10-14T08:11:43.722Z,13.16
2022-10-14T08:14:10.336Z,13.44
2022-10-14T08:16:36.982Z,13.82
2022-10-14T08:19:08.492Z,14.31
2022-10-14T08:21:37.723Z,14.34
2022-10-14T08:24:04.424Z,14.26
2022-10-14T08:26:33.253Z,14.33
2022-10-14T08:29:00.737Z,14.27
2022-10-14T08:31:27.655Z,13.81
2022-10-14T08:33:54.560Z,13.68
2022-10-14T08:36:21.181Z,13.54
2022-10-14T08:38:47.922Z,13.43
2022-10-14T08:41:14.754Z,13.50
2022-10-14T08:44:02.883Z,13.46
2022-10-14T08:47:00.580Z,13.18
2022-10-14T08:49:36.849Z,13.12
2022-10-14T08:52:04.838Z,13.11
2022-10-14T08:54:37.849Z,13.21
2022-10-14T08:59:37.476Z,13.27
2022-10-14T09:02:09.799Z,13.25
2022-10-14T09:04:36.434Z,13.24
2022-10-14T09:07:03.106Z,13.27
2022-10-14T09:09:41.670Z,13.21
2022-10-14T09:12:15.249Z,13.18
2022-10-14T09:14:44.533Z,13.06
2022-10-14T09:17:18.004Z,12.99
2022-10-14T09:19:52.161Z,13.15
2022-10-14T09:22:19.019Z,13.28
2022-10-14T09:24:45.903Z,13.27
2022-10-14T09:27:16.933Z,13.37
2022-10-14T09:29:50.701Z,13.54
2022-10-14T09:32:30.960Z,13.47
2022-10-14T09:34:57.746Z,13.35
2022-10-14T09:37:37.053Z,13.11
2022-10-14T09:40:12.618Z,13.12
2022-10-14T09:42:59.138Z,13.26
2022-10-14T09:45:26.368Z,13.33
2022-10-14T09:48:02.644Z,13.38
2022-10-14T09:50:38.516Z,13.48
2022-10-14T09:53:10.826Z,13.57
2022-10-14T09:55:38.259Z,13.52
2022-10-14T09:58:07.537Z,13.68
2022-10-14T10:00:35.525Z,13.56
2022-10-14T10:03:02.015Z,13.63
2022-10-14T10:05:33.402Z,13.54
2022-10-14T10:08:02.325Z,13.47
2022-10-14T10:10:28.985Z,13.35
2022-10-14T10:12:55.590Z,13.58
2022-10-14T10:15:22.994Z,13.73
2022-10-14T10:17:49.739Z,13.98
2022-10-14T10:20:19.377Z,14.41
2022-10-14T10:22:46.093Z,14.49
2022-10-14T10:25:12.670Z,14.68
2022-10-14T10:27:43.573Z,14.82
2022-10-14T10:30:45.438Z,14.79
2022-10-14T10:33:32.228Z,14.88
2022-10-14T10:36:20.443Z,15.20
2022-10-14T10:38:50.117Z,15.54
2022-10-14T10:41:41.861Z,15.97
2022-10-14T10:44:23.648Z,16.52
2022-10-14T10:46:50.126Z,16.18
2022-10-14T10:49:28.588Z,16.34
2022-10-14T10:52:00.932Z,16.42
2022-10-14T10:54:33.452Z,16.25
2022-10-14T10:57:04.523Z,16.00
2022-10-14T10:59:54.685Z,15.52
2022-10-14T11:02:55.548Z,15.39
2022-10-14T11:05:28.102Z,15.56
2022-10-14T11:08:17.820Z,15.76
2022-10-14T11:11:19.244Z,16.08
2022-10-14T11:13:59.272Z,16.10
2022-10-14T11:16:36.576Z,16.01
2022-10-14T11:19:32.208Z,15.88
2022-10-14T11:22:34.288Z,15.72
2022-10-14T11:25:09.673Z,15.80
2022-10-14T11:28:15.989Z,15.79
2022-10-14T11:30:42.526Z,15.71
2022-10-14T11:33:51.247Z,15.67
2022-10-14T11:36:30.160Z,15.70
2022-10-14T11:39:21.705Z,15.91
2022-10-14T11:41:58.069Z,16.07
2022-10-14T11:47:22.953Z,16.16
2022-10-14T11:50:04.794Z,16.28
2022-10-14T11:52:40.561Z,16.20
2022-10-14T11:55:26.653Z,16.04
2022-10-14T11:57:55.391Z,16.02
2022-10-14T12:00:40.516Z,16.14
2022-10-14T12:03:17.159Z,16.24
2022-10-14T12:05:47.675Z,16.15
2022-10-14T12:08:33.145Z,16.06
2022-10-14T12:11:20.261Z,16.18
2022-10-14T12:13:51.758Z,16.11
2022-10-14T12:16:21.368Z,15.89
2022-10-14T12:18:50.094Z,15.88
2022-10-14T12:21:35.353Z,15.73
2022-10-14T12:24:06.267Z,15.58
2022-10-14T12:26:45.049Z,15.71
2022-10-14T12:29:14.385Z,15.94
2022-10-14T12:31:41.087Z,15.90
2022-10-14T12:34:10.762Z,16.03
2022-10-14T12:36:40.994Z,16.08
2022-10-14T12:39:16.693Z,15.86
2022-10-14T12:42:12.402Z,15.85
2022-10-14T12:44:47.366Z,15.85
2022-10-14T12:47:35.072Z,15.67
2022-10-14T12:50:15.078Z,15.56
2022-10-14T12:52:46.001Z,15.47
2022-10-14T12:55:17.696Z,15.19
2022-10-14T12:57:44.406Z,15.05
2022-10-14T13:00:23.278Z,14.73
2022-10-14T13:02:54.139Z,14.75
2022-10-14T13:05:33.350Z,14.72
2022-10-14T13:08:09.814Z,14.70
2022-10-14T13:10:44.970Z,14.70
2022-10-14T13:13:37.699Z,14.68
2022-10-14T13:16:10.304Z,14.67
2022-10-14T13:18:42.973Z,14.71
2022-10-14T13:21:10.970Z,14.82
2022-10-14T13:23:47.755Z,14.88
2022-10-14T13:26:26.412Z,14.91
2022-10-14T13:29:15.817Z,14.88
2022-10-14T13:32:17.181Z,14.81
2022-10-14T13:35:11.635Z,14.81
2022-10-14T13:37:46.387Z,14.73
2022-10-14T13:40:38.514Z,14.70
2022-10-14T13:43:14.889Z,14.79
2022-10-14T13:45:52.074Z,14.82
2022-10-14T13:48:29.472Z,14.92
2022-10-14T13:51:31.979Z,14.92
2022-10-14T13:54:16.523Z,14.96
2022-10-14T13:56:43.036Z,14.98
2022-10-14T13:59:39.306Z,15.00
2022-10-14T14:02:14.240Z,14.88
2022-10-14T14:04:40.768Z,14.76
2022-10-14T14:07:38.224Z,14.75
2022-10-14T14:09:59.871Z,14.73
2022-10-14T14:12:26.632Z,14.64
2022-10-14T14:14:53.153Z,14.59
2022-10-14T14:17:21.159Z,14.63
2022-10-14T14:19:47.777Z,14.70
2022-10-14T14:22:28.050Z,14.60
2022-10-14T14:25:36.960Z,14.65
2022-10-14T14:28:06.283Z,14.71
2022-10-14T14:30:34.643Z,14.68
2022-10-14T14:33:12.399Z,14.66
2022-10-14T14:35:39.721Z,14.57
2022-10-14T14:38:35.029Z,14.45
2022-10-14T14:41:11.122Z,14.52
2022-10-14T14:43:42.392Z,14.44
2022-10-14T14:46:21.351Z,14.40
2022-10-14T14:48:54.404Z,14.36
2022-10-14T14:57:21.238Z,14.16
2022-10-14T15:00:03.766Z,14.13
2022-10-14T15:02:30.400Z,14.00
2022-10-14T15:05:09.515Z,14.07
2022-10-14T15:07:36.364Z,13.99
2022-10-14T15:10:07.000Z,14.01
2022-10-14T15:12:36.314Z,13.90
2022-10-14T15:15:03.881Z,13.87
2022-10-14T15:17:38.317Z,13.91
2022-10-14T15:20:04.962Z,13.98
2022-10-14T15:22:38.662Z,13.84
2022-10-14T15:25:17.416Z,13.84
2022-10-14T15:27:48.180Z,13.75
2022-10-14T15:30:24.081Z,13.65
2022-10-14T15:32:51.524Z,13.63
2022-10-14T15:35:20.109Z,13.68
2022-10-14T15:37:46.995Z,13.73
2022-10-14T15:40:18.413Z,13.59
2022-10-14T15:42:45.592Z,13.53
2022-10-14T15:45:12.304Z,13.48
2022-10-14T15:47:39.029Z,13.51
2022-10-14T15:50:09.402Z,13.39
2022-10-14T15:52:36.047Z,13.41
2022-10-14T15:55:02.813Z,13.31
2022-10-14T15:57:29.490Z,13.36
2022-10-14T15:59:56.185Z,13.32
2022-10-14T16:02:31.590Z,13.33
2022-10-14T16:07:44.745Z,13.19
2022-10-14T16:10:13.313Z,13.18
2022-10-14T16:12:40.101Z,13.16
2022-10-14T16:15:38.847Z,13.12
2022-10-14T16:18:05.585Z,13.02
2022-10-14T16:20:32.456Z,13.05
2022-10-14T16:22:59.103Z,13.04
2022-10-14T16:25:35.182Z,12.97
2022-10-14T16:28:02.427Z,12.97
2022-10-14T16:30:30.981Z,12.91
2022-10-14T16:32:57.813Z,12.89
2022-10-14T16:35:24.582Z,12.96
2022-10-14T16:37:51.129Z,12.94
2022-10-14T16:40:17.717Z,13.02
2022-10-14T16:42:44.500Z,13.02
2022-10-14T16:45:11.389Z,12.93
2022-10-14T16:47:38.000Z,12.80
2022-10-14T16:50:05.263Z,12.72
2022-10-14T16:52:31.865Z,12.83
2022-10-14T16:54:58.584Z,12.87
2022-10-14T16:57:25.140Z,12.77
2022-10-14T16:59:52.335Z,12.77
2022-10-14T17:02:18.963Z,12.89
2022-10-14T17:04:45.737Z,12.80
2022-10-14T17:07:12.341Z,12.75
2022-10-14T17:09:38.957Z,12.76
2022-10-14T17:12:08.174Z,12.73
2022-10-14T17:14:37.902Z,12.76
2022-10-14T17:17:04.806Z,12.67
2022-10-14T17:19:31.468Z,12.68
2022-10-14T17:21:58.096Z,12.62
2022-10-14T17:24:24.760Z,12.63
2022-10-14T17:26:51.385Z,12.61
2022-10-14T17:29:18.146Z,12.59
2022-10-14T17:31:44.713Z,12.57
2022-10-14T17:34:11.354Z,12.51
2022-10-14T17:36:38.054Z,12.46
2022-10-14T17:39:04.796Z,12.45
2022-10-14T17:41:31.474Z,12.46
2022-10-14T17:43:58.772Z,12.31
2022-10-14T17:46:25.612Z,12.30
2022-10-14T17:48:54.926Z,12.26
2022-10-14T17:51:21.741Z,12.35
2022-10-14T17:53:48.373Z,12.33
2022-10-14T17:56:15.010Z,12.28
2022-10-14T17:58:41.894Z,12.21
2022-10-14T18:01:15.103Z,12.19
2022-10-14T18:03:42.838Z,12.16
2022-10-14T18:06:17.502Z,12.14
2022-10-14T18:08:45.731Z,12.11
2022-10-14T18:11:12.446Z,12.11
2022-10-14T18:16:11.929Z,12.09
2022-10-14T18:18:38.990Z,12.05
2022-10-14T18:21:07.187Z,12.07
2022-10-14T18:23:34.974Z,12.11
2022-10-14T18:26:03.281Z,12.02
2022-10-14T18:28:30.092Z,12.02
2022-10-14T18:30:56.745Z,11.98
2022-10-14T18:33:23.407Z,11.93
2022-10-14T18:35:50.127Z,11.99
2022-10-14T18:38:16.878Z,11.98
2022-10-14T18:40:43.462Z,11.96
2022-10-14T18:43:10.101Z,11.91
2022-10-14T18:45:36.787Z,11.92
2022-10-14T18:48:03.428Z,12.00
2022-10-14T18:50:30.096Z,11.89
2022-10-14T18:52:56.763Z,11.92
2022-10-14T18:55:24.100Z,12.00
2022-10-14T18:57:50.713Z,11.95
2022-10-14T19:00:17.467Z,11.96
2022-10-14T19:02:44.137Z,11.93
2022-10-14T19:05:10.749Z,12.00
2022-10-14T19:07:37.326Z,11.96
2022-10-14T19:10:04.445Z,12.04
2022-10-14T19:12:31.714Z,12.05
2022-10-14T19:14:58.663Z,12.00
2022-10-14T19:17:25.298Z,12.04
2022-10-14T19:19:51.918Z,12.06
2022-10-14T19:22:18.501Z,11.98
2022-10-14T19:24:45.177Z,12.00
2022-10-14T19:27:11.765Z,11.99
2022-10-14T19:29:38.466Z,12.01
2022-10-14T19:32:05.140Z,12.04
2022-10-14T19:34:31.849Z,12.00
2022-10-14T19:36:58.637Z,12.02
2022-10-14T19:39:25.485Z,12.06
2022-10-14T19:41:52.102Z,11.96
2022-10-14T19:44:18.958Z,11.99
2022-10-14T19:46:45.738Z,11.93
2022-10-14T19:49:13.122Z,12.04
2022-10-14T19:51:40.033Z,12.00
2022-10-14T19:54:06.623Z,11.91
2022-10-14T19:56:33.311Z,11.96
2022-10-14T19:58:59.867Z,11.94
2022-10-14T20:01:30.118Z,11.91
2022-10-14T20:03:56.907Z,11.88
2022-10-14T20:06:23.717Z,11.85
2022-10-14T20:08:50.402Z,11.88
2022-10-14T20:11:17.950Z,11.88
2022-10-14T20:13:44.706Z,11.89
2022-10-14T20:16:11.525Z,11.81
2022-10-14T20:18:38.128Z,11.79
2022-10-14T20:21:05.572Z,11.74
2022-10-14T20:23:35.860Z,11.74
2022-10-14T20:26:03.201Z,11.77
2022-10-14T20:28:29.905Z,11.84
2022-10-14T20:30:56.601Z,11.81
2022-10-14T20:33:23.376Z,11.79
2022-10-14T20:36:00.947Z,11.76
2022-10-14T20:38:27.969Z,11.72
2022-10-14T20:40:54.881Z,11.75
2022-10-14T20:43:21.874Z,11.72
2022-10-14T20:45:48.501Z,11.71
2022-10-14T20:48:15.154Z,11.82
2022-10-14T20:50:42.054Z,11.76
2022-10-14T20:53:08.746Z,11.81
2022-10-14T20:55:36.304Z,11.80
2022-10-14T20:58:03.337Z,11.75
2022-10-14T21:00:29.964Z,11.77
2022-10-14T21:02:56.575Z,11.77
2022-10-14T21:05:23.469Z,11.73
2022-10-14T21:07:51.421Z,11.72
2022-10-14T21:10:18.307Z,11.70
2022-10-14T21:12:48.066Z,11.70
2022-10-14T21:15:15.628Z,11.70
2022-10-14T21:17:47.633Z,11.69
2022-10-14T21:20:14.608Z,11.69
2022-10-14T21:22:41.565Z,11.69
2022-10-14T21:25:08.506Z,11.67
2022-10-14T21:27:35.121Z,11.66
2022-10-14T21:30:01.828Z,11.71
2022-10-14T21:32:28.479Z,11.65
2022-10-14T21:34:55.144Z,11.71
2022-10-14T21:37:21.857Z,11.66
2022-10-14T21:39:48.461Z,11.60
2022-10-14T21:42:14.953Z,11.58
2022-10-14T21:44:41.749Z,11.61
2022-10-14T21:47:08.383Z,11.61
2022-10-14T21:49:35.008Z,11.60
2022-10-14T21:52:01.626Z,11.64
2022-10-14T21:54:28.319Z,11.55
2022-10-14T21:59:22.868Z,11.56
2022-10-14T22:01:49.482Z,11.58
2022-10-14T22:04:16.046Z,11.54
2022-10-14T22:06:42.635Z,11.54
2022-10-14T22:09:09.280Z,11.52
2022-10-14T22:11:40.332Z,11.60
2022-10-14T22:14:10.759Z,11.62
2022-10-14T22:16:37.304Z,11.54
2022-10-14T22:19:04.811Z,11.61
2022-10-14T22:21:33.460Z,11.55
2022-10-14T22:24:00.288Z,11.56
2022-10-14T22:26:27.748Z,11.44
2022-10-14T22:29:15.618Z,11.46
2022-10-14T22:31:42.379Z,11.52
2022-10-14T22:34:10.368Z,11.44
2022-10-14T22:36:37.066Z,11.51
2022-10-14T22:39:06.709Z,11.45
2022-10-14T22:41:35.638Z,11.46
2022-10-14T22:44:03.130Z,11.42
2022-10-14T22:46:30.545Z,11.36
2022-10-14T22:48:57.345Z,11.39
2022-10-14T22:51:31.650Z,11.30
2022-10-14T22:53:58.299Z,11.31
2022-10-14T22:56:26.073Z,11.43
2022-10-14T22:58:53.921Z,11.38
2022-10-14T23:01:21.691Z,11.41
2022-10-14T23:03:48.330Z,11.36
2022-10-14T23:06:15.012Z,11.34
2022-10-14T23:08:42.707Z,11.33
2022-10-14T23:11:12.893Z,11.40
2022-10-14T23:13:39.421Z,11.32
2022-10-14T23:16:07.166Z,11.33
2022-10-14T23:18:35.604Z,11.34
2022-10-14T23:21:16.100Z,11.29
2022-10-14T23:23:42.989Z,11.33
2022-10-14T23:26:10.541Z,11.34
2022-10-14T23:28:37.710Z,11.32
2022-10-14T23:31:11.574Z,11.28
2022-10-14T23:33:38.282Z,11.27
2022-10-14T23:36:05.765Z,11.23
2022-10-14T23:38:33.772Z,11.33
2022-10-14T23:41:02.674Z,11.25
2022-10-14T23:43:29.814Z,11.24
2022-10-14T23:45:56.368Z,11.27
2022-10-14T23:48:23.200Z,11.30
2022-10-14T23:50:49.785Z,11.20
2022-10-14T23:53:16.490Z,11.16
2022-10-14T23:55:43.155Z,11.22
2022-10-14T23:58:10.035Z,11.14
